sensor_id;sensor_type;location;lat;lon;timestamp;temperature;humidity
4090;DHT22;2059;48.538;12.146;2023-05-10T00:00:37;17.40;81.70
4090;DHT22;2059;48.538;12.146;2023-05-10T00:05:40;17.30;82.20
4090;DHT22;2059;48.538;12.146;2023-05-10T00:10:42;17.30;82.10
4090;DHT22;2059;48.538;12.146;2023-05-10T00:15:43;17.30;81.20
4090;DHT22;2059;48.538;12.146;2023-05-10T00:20:46;17.30;81.70
4090;DHT22;2059;48.538;12.146;2023-05-10T00:25:49;17.20;81.60
4090;DHT22;2059;48.538;12.146;2023-05-10T00:30:50;17.30;81.30
4090;DHT22;2059;48.538;12.146;2023-05-10T00:35:54;17.20;81.70
4090;DHT22;2059;48.538;12.146;2023-05-10T00:40:55;17.30;82.20
4090;DHT22;2059;48.538;12.146;2023-05-10T00:45:57;17.10;83.80
4090;DHT22;2059;48.538;12.146;2023-05-10T00:51:00;17.10;86.20
4090;DHT22;2059;48.538;12.146;2023-05-10T00:56:02;17.00;89.50
4090;DHT22;2059;48.538;12.146;2023-05-10T01:01:05;16.90;91.10
4090;DHT22;2059;48.538;12.146;2023-05-10T01:06:08;16.80;92.20
4090;DHT22;2059;48.538;12.146;2023-05-10T01:11:11;16.80;93.50
4090;DHT22;2059;48.538;12.146;2023-05-10T01:16:13;16.90;94.80
4090;DHT22;2059;48.538;12.146;2023-05-10T01:21:22;16.90;95.70
4090;DHT22;2059;48.538;12.146;2023-05-10T01:26:45;16.80;96.90
4090;DHT22;2059;48.538;12.146;2023-05-10T01:32:11;16.80;97.90
4090;DHT22;2059;48.538;12.146;2023-05-10T01:37:20;16.60;98.50
4090;DHT22;2059;48.538;12.146;2023-05-10T01:42:26;16.70;99.30
4090;DHT22;2059;48.538;12.146;2023-05-10T01:47:37;16.90;99.90
4090;DHT22;2059;48.538;12.146;2023-05-10T01:52:42;17.00;99.90
4090;DHT22;2059;48.538;12.146;2023-05-10T01:57:46;16.70;99.90
4090;DHT22;2059;48.538;12.146;2023-05-10T02:02:52;16.70;99.90
4090;DHT22;2059;48.538;12.146;2023-05-10T02:07:54;16.70;99.90
4090;DHT22;2059;48.538;12.146;2023-05-10T02:12:58;16.80;99.90
4090;DHT22;2059;48.538;12.146;2023-05-10T02:18:02;16.90;99.90
4090;DHT22;2059;48.538;12.146;2023-05-10T02:23:06;16.90;99.90
4090;DHT22;2059;48.538;12.146;2023-05-10T02:28:10;16.90;99.90
4090;DHT22;2059;48.538;12.146;2023-05-10T02:33:14;16.90;99.90
4090;DHT22;2059;48.538;12.146;2023-05-10T02:38:19;16.80;99.90
4090;DHT22;2059;48.538;12.146;2023-05-10T02:43:23;16.70;99.90
4090;DHT22;2059;48.538;12.146;2023-05-10T02:48:26;16.80;99.90
4090;DHT22;2059;48.538;12.146;2023-05-10T02:53:31;16.70;99.90
4090;DHT22;2059;48.538;12.146;2023-05-10T02:58:33;16.80;99.90
4090;DHT22;2059;48.538;12.146;2023-05-10T03:03:37;16.60;99.90
4090;DHT22;2059;48.538;12.146;2023-05-10T03:08:39;16.70;99.90
4090;DHT22;2059;48.538;12.146;2023-05-10T03:13:47;16.60;99.90
4090;DHT22;2059;48.538;12.146;2023-05-10T03:18:56;16.50;99.90
4090;DHT22;2059;48.538;12.146;2023-05-10T03:24:07;16.60;99.90
4090;DHT22;2059;48.538;12.146;2023-05-10T03:29:10;16.50;99.90
4090;DHT22;2059;48.538;12.146;2023-05-10T03:34:14;16.50;99.90
4090;DHT22;2059;48.538;12.146;2023-05-10T03:39:16;16.50;99.90
4090;DHT22;2059;48.538;12.146;2023-05-10T03:44:17;16.40;99.90
4090;DHT22;2059;48.538;12.146;2023-05-10T03:49:20;16.40;99.90
4090;DHT22;2059;48.538;12.146;2023-05-10T03:54:22;16.40;99.90
4090;DHT22;2059;48.538;12.146;2023-05-10T03:59:24;16.40;99.90
4090;DHT22;2059;48.538;12.146;2023-05-10T04:04:27;16.40;99.90
4090;DHT22;2059;48.538;12.146;2023-05-10T04:09:29;16.40;99.90
4090;DHT22;2059;48.538;12.146;2023-05-10T04:14:30;16.30;99.90
4090;DHT22;2059;48.538;12.146;2023-05-10T04:19:35;16.30;99.90
4090;DHT22;2059;48.538;12.146;2023-05-10T04:24:40;16.40;99.90
4090;DHT22;2059;48.538;12.146;2023-05-10T04:29:46;16.30;99.90
4090;DHT22;2059;48.538;12.146;2023-05-10T04:34:50;16.30;99.90
4090;DHT22;2059;48.538;12.146;2023-05-10T04:39:55;16.40;99.90
4090;DHT22;2059;48.538;12.146;2023-05-10T04:44:57;16.40;99.90
4090;DHT22;2059;48.538;12.146;2023-05-10T04:50:00;16.50;99.90
4090;DHT22;2059;48.538;12.146;2023-05-10T04:55:02;16.50;99.90
4090;DHT22;2059;48.538;12.146;2023-05-10T05:00:05;16.50;99.90
4090;DHT22;2059;48.538;12.146;2023-05-10T05:05:09;16.60;99.90
4090;DHT22;2059;48.538;12.146;2023-05-10T05:10:10;16.60;99.90
4090;DHT22;2059;48.538;12.146;2023-05-10T05:15:12;16.60;99.90
4090;DHT22;2059;48.538;12.146;2023-05-10T05:20:17;16.60;99.90
4090;DHT22;2059;48.538;12.146;2023-05-10T05:25:19;16.70;99.90
4090;DHT22;2059;48.538;12.146;2023-05-10T05:30:21;16.60;99.90
4090;DHT22;2059;48.538;12.146;2023-05-10T05:35:24;16.50;99.90
4090;DHT22;2059;48.538;12.146;2023-05-10T05:40:26;16.50;99.90
4090;DHT22;2059;48.538;12.146;2023-05-10T05:45:28;16.60;99.90
4090;DHT22;2059;48.538;12.146;2023-05-10T05:50:31;16.20;99.90
4090;DHT22;2059;48.538;12.146;2023-05-10T05:55:33;16.30;99.90
4090;DHT22;2059;48.538;12.146;2023-05-10T06:00:35;16.40;99.90
4090;DHT22;2059;48.538;12.146;2023-05-10T06:05:38;16.40;99.90
4090;DHT22;2059;48.538;12.146;2023-05-10T06:10:40;16.80;99.90
4090;DHT22;2059;48.538;12.146;2023-05-10T06:15:42;16.80;99.90
4090;DHT22;2059;48.538;12.146;2023-05-10T06:20:45;17.10;99.90
4090;DHT22;2059;48.538;12.146;2023-05-10T06:25:47;17.10;99.90
4090;DHT22;2059;48.538;12.146;2023-05-10T06:30:49;17.10;99.90
4090;DHT22;2059;48.538;12.146;2023-05-10T06:35:52;17.20;99.90
4090;DHT22;2059;48.538;12.146;2023-05-10T06:40:54;17.20;99.90
4090;DHT22;2059;48.538;12.146;2023-05-10T06:45:56;16.90;99.90
4090;DHT22;2059;48.538;12.146;2023-05-10T06:50:59;16.50;99.90
4090;DHT22;2059;48.538;12.146;2023-05-10T06:56:09;16.50;99.90
4090;DHT22;2059;48.538;12.146;2023-05-10T07:01:13;16.70;99.90
4090;DHT22;2059;48.538;12.146;2023-05-10T07:06:17;16.60;99.90
4090;DHT22;2059;48.538;12.146;2023-05-10T07:11:19;16.80;99.90
4090;DHT22;2059;48.538;12.146;2023-05-10T07:16:21;16.70;99.90
4090;DHT22;2059;48.538;12.146;2023-05-10T07:21:24;16.50;99.90
4090;DHT22;2059;48.538;12.146;2023-05-10T07:26:29;16.40;99.90
4090;DHT22;2059;48.538;12.146;2023-05-10T07:31:30;16.20;99.90
4090;DHT22;2059;48.538;12.146;2023-05-10T07:36:34;16.40;99.90
4090;DHT22;2059;48.538;12.146;2023-05-10T07:41:36;16.70;99.90
4090;DHT22;2059;48.538;12.146;2023-05-10T07:46:39;16.90;99.90
4090;DHT22;2059;48.538;12.146;2023-05-10T07:51:42;17.00;99.90
4090;DHT22;2059;48.538;12.146;2023-05-10T07:56:44;17.10;99.90
4090;DHT22;2059;48.538;12.146;2023-05-10T08:01:47;17.20;99.90
4090;DHT22;2059;48.538;12.146;2023-05-10T08:06:50;17.30;99.90
4090;DHT22;2059;48.538;12.146;2023-05-10T08:11:52;17.70;99.90
4090;DHT22;2059;48.538;12.146;2023-05-10T08:16:54;18.20;99.90
4090;DHT22;2059;48.538;12.146;2023-05-10T08:21:57;18.40;99.90
4090;DHT22;2059;48.538;12.146;2023-05-10T08:26:58;18.80;99.90
4090;DHT22;2059;48.538;12.146;2023-05-10T08:32:00;19.30;99.90
4090;DHT22;2059;48.538;12.146;2023-05-10T08:37:06;19.50;99.90
4090;DHT22;2059;48.538;12.146;2023-05-10T08:42:11;19.90;99.40
4090;DHT22;2059;48.538;12.146;2023-05-10T08:47:32;20.20;99.70
4090;DHT22;2059;48.538;12.146;2023-05-10T08:52:38;20.80;99.50
4090;DHT22;2059;48.538;12.146;2023-05-10T08:57:41;21.00;98.10
4090;DHT22;2059;48.538;12.146;2023-05-10T09:02:43;21.20;98.20
4090;DHT22;2059;48.538;12.146;2023-05-10T09:07:47;21.70;98.50
4090;DHT22;2059;48.538;12.146;2023-05-10T09:12:50;21.80;96.20
4090;DHT22;2059;48.538;12.146;2023-05-10T09:17:55;21.20;96.80
4090;DHT22;2059;48.538;12.146;2023-05-10T09:22:59;20.60;96.10
4090;DHT22;2059;48.538;12.146;2023-05-10T09:28:01;20.90;96.60
4090;DHT22;2059;48.538;12.146;2023-05-10T09:33:03;22.20;96.90
4090;DHT22;2059;48.538;12.146;2023-05-10T09:38:06;22.60;95.60
4090;DHT22;2059;48.538;12.146;2023-05-10T09:43:08;22.40;95.90
4090;DHT22;2059;48.538;12.146;2023-05-10T09:48:11;22.10;94.90
4090;DHT22;2059;48.538;12.146;2023-05-10T09:53:15;22.00;94.70
4090;DHT22;2059;48.538;12.146;2023-05-10T09:58:18;22.80;95.40
4090;DHT22;2059;48.538;12.146;2023-05-10T10:03:20;22.80;94.40
4090;DHT22;2059;48.538;12.146;2023-05-10T10:08:24;22.40;94.00
4090;DHT22;2059;48.538;12.146;2023-05-10T10:13:26;21.80;94.30
4090;DHT22;2059;48.538;12.146;2023-05-10T10:18:28;21.20;94.80
4090;DHT22;2059;48.538;12.146;2023-05-10T10:23:34;20.50;95.10
4090;DHT22;2059;48.538;12.146;2023-05-10T10:28:41;19.90;96.40
4090;DHT22;2059;48.538;12.146;2023-05-10T10:33:59;19.60;97.40
4090;DHT22;2059;48.538;12.146;2023-05-10T10:39:09;19.50;97.50
4090;DHT22;2059;48.538;12.146;2023-05-10T10:49:42;20.20;97.70
4090;DHT22;2059;48.538;12.146;2023-05-10T10:54:51;20.20;97.00
4090;DHT22;2059;48.538;12.146;2023-05-10T11:00:19;20.00;96.50
4090;DHT22;2059;48.538;12.146;2023-05-10T11:05:39;19.80;97.00
4090;DHT22;2059;48.538;12.146;2023-05-10T11:16:12;19.60;98.00
4090;DHT22;2059;48.538;12.146;2023-05-10T11:21:15;19.80;98.20
4090;DHT22;2059;48.538;12.146;2023-05-10T11:26:18;20.10;98.40
4090;DHT22;2059;48.538;12.146;2023-05-10T11:31:23;20.40;97.10
4090;DHT22;2059;48.538;12.146;2023-05-10T11:36:28;20.90;97.90
4090;DHT22;2059;48.538;12.146;2023-05-10T11:41:32;21.80;97.20
4090;DHT22;2059;48.538;12.146;2023-05-10T11:46:36;22.40;95.50
4090;DHT22;2059;48.538;12.146;2023-05-10T11:51:38;22.60;93.90
4090;DHT22;2059;48.538;12.146;2023-05-10T11:56:41;22.40;93.60
4090;DHT22;2059;48.538;12.146;2023-05-10T12:01:43;22.00;94.20
4090;DHT22;2059;48.538;12.146;2023-05-10T12:06:45;22.10;94.60
4090;DHT22;2059;48.538;12.146;2023-05-10T12:11:49;22.30;95.10
4090;DHT22;2059;48.538;12.146;2023-05-10T12:16:51;22.30;94.40
4090;DHT22;2059;48.538;12.146;2023-05-10T12:21:52;22.20;95.20
4090;DHT22;2059;48.538;12.146;2023-05-10T12:26:55;22.10;93.70
4090;DHT22;2059;48.538;12.146;2023-05-10T12:31:59;21.90;94.20
4090;DHT22;2059;48.538;12.146;2023-05-10T12:37:02;21.80;94.60
4090;DHT22;2059;48.538;12.146;2023-05-10T12:42:05;22.50;94.60
4090;DHT22;2059;48.538;12.146;2023-05-10T12:47:07;22.50;94.00
4090;DHT22;2059;48.538;12.146;2023-05-10T12:52:08;22.60;93.30
4090;DHT22;2059;48.538;12.146;2023-05-10T12:57:12;22.70;94.10
4090;DHT22;2059;48.538;12.146;2023-05-10T13:02:14;22.70;93.90
4090;DHT22;2059;48.538;12.146;2023-05-10T13:07:18;22.40;93.80
4090;DHT22;2059;48.538;12.146;2023-05-10T13:12:21;21.90;93.30
4090;DHT22;2059;48.538;12.146;2023-05-10T13:17:25;20.90;93.80
4090;DHT22;2059;48.538;12.146;2023-05-10T13:22:27;20.20;94.80
4090;DHT22;2059;48.538;12.146;2023-05-10T13:27:32;20.00;95.10
4090;DHT22;2059;48.538;12.146;2023-05-10T13:32:34;19.80;95.40
4090;DHT22;2059;48.538;12.146;2023-05-10T13:37:36;19.50;96.20
4090;DHT22;2059;48.538;12.146;2023-05-10T13:42:39;19.40;96.70
4090;DHT22;2059;48.538;12.146;2023-05-10T13:47:41;19.10;96.90
4090;DHT22;2059;48.538;12.146;2023-05-10T13:52:43;18.50;97.90
4090;DHT22;2059;48.538;12.146;2023-05-10T13:57:46;18.50;99.10
4090;DHT22;2059;48.538;12.146;2023-05-10T14:02:47;18.40;99.20
4090;DHT22;2059;48.538;12.146;2023-05-10T14:07:50;18.20;99.90
4090;DHT22;2059;48.538;12.146;2023-05-10T14:12:53;18.10;99.90
4090;DHT22;2059;48.538;12.146;2023-05-10T14:17:55;17.50;99.90
4090;DHT22;2059;48.538;12.146;2023-05-10T14:22:56;17.20;99.90
4090;DHT22;2059;48.538;12.146;2023-05-10T14:27:59;17.10;99.90
4090;DHT22;2059;48.538;12.146;2023-05-10T14:33:02;16.90;99.90
4090;DHT22;2059;48.538;12.146;2023-05-10T14:38:03;16.90;99.90
4090;DHT22;2059;48.538;12.146;2023-05-10T14:43:07;16.80;99.90
4090;DHT22;2059;48.538;12.146;2023-05-10T14:48:10;16.80;99.90
4090;DHT22;2059;48.538;12.146;2023-05-10T14:53:16;16.70;99.90
4090;DHT22;2059;48.538;12.146;2023-05-10T14:58:19;16.80;99.90
4090;DHT22;2059;48.538;12.146;2023-05-10T15:03:21;16.80;99.90
4090;DHT22;2059;48.538;12.146;2023-05-10T15:08:23;16.90;99.90
4090;DHT22;2059;48.538;12.146;2023-05-10T15:13:26;16.80;99.90
4090;DHT22;2059;48.538;12.146;2023-05-10T15:18:28;16.70;99.90
4090;DHT22;2059;48.538;12.146;2023-05-10T15:23:30;16.50;99.90
4090;DHT22;2059;48.538;12.146;2023-05-10T15:28:33;16.60;99.90
4090;DHT22;2059;48.538;12.146;2023-05-10T15:33:37;16.70;99.90
4090;DHT22;2059;48.538;12.146;2023-05-10T15:38:39;16.90;99.90
4090;DHT22;2059;48.538;12.146;2023-05-10T15:43:42;17.10;99.90
4090;DHT22;2059;48.538;12.146;2023-05-10T15:48:44;17.10;99.90
4090;DHT22;2059;48.538;12.146;2023-05-10T15:53:46;17.10;99.90
4090;DHT22;2059;48.538;12.146;2023-05-10T15:58:49;17.10;99.90
4090;DHT22;2059;48.538;12.146;2023-05-10T16:03:51;17.10;99.90
4090;DHT22;2059;48.538;12.146;2023-05-10T16:08:52;16.70;99.90
4090;DHT22;2059;48.538;12.146;2023-05-10T16:13:56;16.70;99.90
4090;DHT22;2059;48.538;12.146;2023-05-10T16:18:57;16.80;99.90
4090;DHT22;2059;48.538;12.146;2023-05-10T16:24:02;16.70;99.90
4090;DHT22;2059;48.538;12.146;2023-05-10T16:29:05;16.60;99.90
4090;DHT22;2059;48.538;12.146;2023-05-10T16:34:07;16.50;99.90
4090;DHT22;2059;48.538;12.146;2023-05-10T16:39:09;16.40;99.90
4090;DHT22;2059;48.538;12.146;2023-05-10T16:44:13;16.50;99.90
4090;DHT22;2059;48.538;12.146;2023-05-10T16:49:15;16.60;99.90
4090;DHT22;2059;48.538;12.146;2023-05-10T16:54:17;16.60;99.90
4090;DHT22;2059;48.538;12.146;2023-05-10T16:59:21;16.60;99.90
4090;DHT22;2059;48.538;12.146;2023-05-10T17:04:23;16.50;99.90
4090;DHT22;2059;48.538;12.146;2023-05-10T17:09:25;16.30;99.90
4090;DHT22;2059;48.538;12.146;2023-05-10T17:14:28;16.20;99.90
4090;DHT22;2059;48.538;12.146;2023-05-10T17:19:30;16.10;99.90
4090;DHT22;2059;48.538;12.146;2023-05-10T17:24:32;16.10;99.90
4090;DHT22;2059;48.538;12.146;2023-05-10T17:29:38;16.10;99.90
4090;DHT22;2059;48.538;12.146;2023-05-10T17:34:40;16.00;99.90
4090;DHT22;2059;48.538;12.146;2023-05-10T17:39:42;15.90;99.90
4090;DHT22;2059;48.538;12.146;2023-05-10T17:44:45;15.80;99.90
4090;DHT22;2059;48.538;12.146;2023-05-10T17:49:47;15.70;99.90
4090;DHT22;2059;48.538;12.146;2023-05-10T17:54:49;15.70;99.90
4090;DHT22;2059;48.538;12.146;2023-05-10T17:59:52;15.60;99.90
4090;DHT22;2059;48.538;12.146;2023-05-10T18:04:55;15.60;99.90
4090;DHT22;2059;48.538;12.146;2023-05-10T18:09:57;15.50;99.90
4090;DHT22;2059;48.538;12.146;2023-05-10T18:15:01;15.50;99.90
4090;DHT22;2059;48.538;12.146;2023-05-10T18:20:04;15.40;99.90
4090;DHT22;2059;48.538;12.146;2023-05-10T18:25:07;15.40;99.90
4090;DHT22;2059;48.538;12.146;2023-05-10T18:30:12;15.40;99.90
4090;DHT22;2059;48.538;12.146;2023-05-10T18:35:14;15.20;99.90
4090;DHT22;2059;48.538;12.146;2023-05-10T18:40:16;15.10;99.90
4090;DHT22;2059;48.538;12.146;2023-05-10T18:45:20;15.10;99.90
4090;DHT22;2059;48.538;12.146;2023-05-10T18:50:22;15.00;99.90
4090;DHT22;2059;48.538;12.146;2023-05-10T18:55:23;14.90;99.90
4090;DHT22;2059;48.538;12.146;2023-05-10T19:00:27;14.90;99.90
4090;DHT22;2059;48.538;12.146;2023-05-10T19:05:31;14.90;99.90
4090;DHT22;2059;48.538;12.146;2023-05-10T19:10:33;14.80;99.90
4090;DHT22;2059;48.538;12.146;2023-05-10T19:15:39;14.70;99.90
4090;DHT22;2059;48.538;12.146;2023-05-10T19:20:41;14.60;99.90
4090;DHT22;2059;48.538;12.146;2023-05-10T19:25:43;14.60;99.90
4090;DHT22;2059;48.538;12.146;2023-05-10T19:30:46;14.50;99.90
4090;DHT22;2059;48.538;12.146;2023-05-10T19:35:49;14.60;99.90
4090;DHT22;2059;48.538;12.146;2023-05-10T19:40:54;14.40;99.90
4090;DHT22;2059;48.538;12.146;2023-05-10T19:45:59;14.50;99.90
4090;DHT22;2059;48.538;12.146;2023-05-10T19:51:02;14.50;99.90
4090;DHT22;2059;48.538;12.146;2023-05-10T19:56:05;14.40;99.90
4090;DHT22;2059;48.538;12.146;2023-05-10T20:01:09;14.30;99.90
4090;DHT22;2059;48.538;12.146;2023-05-10T20:06:11;14.30;99.90
4090;DHT22;2059;48.538;12.146;2023-05-10T20:11:12;14.30;99.90
4090;DHT22;2059;48.538;12.146;2023-05-10T20:16:16;14.30;99.90
4090;DHT22;2059;48.538;12.146;2023-05-10T20:21:18;14.20;99.90
4090;DHT22;2059;48.538;12.146;2023-05-10T20:26:22;14.30;99.90
4090;DHT22;2059;48.538;12.146;2023-05-10T20:31:25;14.20;99.90
4090;DHT22;2059;48.538;12.146;2023-05-10T20:36:27;14.30;99.90
4090;DHT22;2059;48.538;12.146;2023-05-10T20:41:29;14.20;99.90
4090;DHT22;2059;48.538;12.146;2023-05-10T20:46:32;14.30;99.90
4090;DHT22;2059;48.538;12.146;2023-05-10T20:51:34;14.40;99.90
4090;DHT22;2059;48.538;12.146;2023-05-10T20:56:37;14.30;99.90
4090;DHT22;2059;48.538;12.146;2023-05-10T21:01:42;14.20;99.90
4090;DHT22;2059;48.538;12.146;2023-05-10T21:06:44;14.20;99.90
4090;DHT22;2059;48.538;12.146;2023-05-10T21:11:46;14.20;99.90
4090;DHT22;2059;48.538;12.146;2023-05-10T21:16:49;14.10;99.90
4090;DHT22;2059;48.538;12.146;2023-05-10T21:21:52;14.10;99.90
4090;DHT22;2059;48.538;12.146;2023-05-10T21:26:55;14.00;99.90
4090;DHT22;2059;48.538;12.146;2023-05-10T21:31:58;14.00;99.90
4090;DHT22;2059;48.538;12.146;2023-05-10T21:37:00;13.80;99.90
4090;DHT22;2059;48.538;12.146;2023-05-10T21:42:02;13.90;99.90
4090;DHT22;2059;48.538;12.146;2023-05-10T21:47:05;13.90;99.90
4090;DHT22;2059;48.538;12.146;2023-05-10T21:52:07;13.80;99.90
4090;DHT22;2059;48.538;12.146;2023-05-10T21:57:09;13.90;99.90
4090;DHT22;2059;48.538;12.146;2023-05-10T22:02:12;13.90;99.90
4090;DHT22;2059;48.538;12.146;2023-05-10T22:07:14;13.90;99.90
4090;DHT22;2059;48.538;12.146;2023-05-10T22:12:16;13.70;99.90
4090;DHT22;2059;48.538;12.146;2023-05-10T22:17:20;13.70;99.90
4090;DHT22;2059;48.538;12.146;2023-05-10T22:22:21;13.50;99.90
4090;DHT22;2059;48.538;12.146;2023-05-10T22:27:23;13.50;99.90
4090;DHT22;2059;48.538;12.146;2023-05-10T22:32:27;13.60;99.90
4090;DHT22;2059;48.538;12.146;2023-05-10T22:37:30;13.60;99.90
4090;DHT22;2059;48.538;12.146;2023-05-10T22:42:32;13.40;99.90
4090;DHT22;2059;48.538;12.146;2023-05-10T22:47:35;13.30;99.90
4090;DHT22;2059;48.538;12.146;2023-05-10T22:52:37;13.30;99.90
4090;DHT22;2059;48.538;12.146;2023-05-10T22:57:39;13.30;99.90
4090;DHT22;2059;48.538;12.146;2023-05-10T23:02:45;13.30;99.90
4090;DHT22;2059;48.538;12.146;2023-05-10T23:07:46;13.40;99.90
4090;DHT22;2059;48.538;12.146;2023-05-10T23:12:52;13.40;99.90
4090;DHT22;2059;48.538;12.146;2023-05-10T23:17:56;13.50;99.90
4090;DHT22;2059;48.538;12.146;2023-05-10T23:23:00;13.40;99.90
4090;DHT22;2059;48.538;12.146;2023-05-10T23:28:02;13.40;99.90
4090;DHT22;2059;48.538;12.146;2023-05-10T23:33:05;13.40;99.90
4090;DHT22;2059;48.538;12.146;2023-05-10T23:38:07;13.50;99.90
4090;DHT22;2059;48.538;12.146;2023-05-10T23:43:09;13.50;99.90
4090;DHT22;2059;48.538;12.146;2023-05-10T23:48:15;13.50;99.90
4090;DHT22;2059;48.538;12.146;2023-05-10T23:53:17;13.50;99.90
4090;DHT22;2059;48.538;12.146;2023-05-10T23:58:19;13.50;99.90
